createdAt,value
2024-03-12T00:01:10.050Z,99322.19
2024-03-12T00:03:44.036Z,99325.22
2024-03-12T00:06:11.838Z,99325.22
2024-03-12T00:08:40.677Z,99330.72
2024-03-12T00:11:08.948Z,99328.25
2024-03-12T00:13:36.157Z,99330.28
2024-03-12T00:16:04.818Z,99330.28
2024-03-12T00:18:34.188Z,99328.81
2024-03-12T00:21:04.496Z,99330.63
2024-03-12T00:23:31.534Z,99330.00
2024-03-12T00:25:58.521Z,99331.22
2024-03-12T00:28:25.571Z,99333.03
2024-03-12T00:30:55.045Z,99334.03
2024-03-12T00:33:22.295Z,99339.53
2024-03-12T00:35:49.473Z,99342.38
2024-03-12T00:38:18.859Z,99334.78
2024-03-12T00:40:52.233Z,99340.28
2024-03-12T00:43:19.410Z,99340.47
2024-03-12T00:45:51.308Z,99333.50
2024-03-12T00:48:25.121Z,99334.69
2024-03-12T00:50:52.236Z,99333.03
2024-03-12T00:53:19.220Z,99340.19
2024-03-12T00:55:48.478Z,99343.03
2024-03-12T00:58:20.858Z,99339.56
2024-03-12T01:00:50.183Z,99347.72
2024-03-12T01:03:18.356Z,99343.56
2024-03-12T01:08:13.612Z,99342.94
2024-03-12T01:10:53.269Z,99348.44
2024-03-12T01:13:48.755Z,99355.75
2024-03-12T01:16:28.036Z,99358.59
2024-03-12T01:18:55.245Z,99360.63
2024-03-12T01:21:22.380Z,99365.09
2024-03-12T01:23:49.994Z,99358.97
2024-03-12T01:26:16.997Z,99360.97
2024-03-12T01:28:44.048Z,99355.66
2024-03-12T01:31:11.130Z,99351.34
2024-03-12T01:33:38.255Z,99356.03
2024-03-12T01:36:19.893Z,99361.34
2024-03-12T01:38:51.685Z,99352.91
2024-03-12T01:41:19.072Z,99354.09
2024-03-12T01:43:56.594Z,99356.13
2024-03-12T01:46:30.494Z,99350.16
2024-03-12T01:48:59.774Z,99352.19
2024-03-12T01:51:28.736Z,99350.91
2024-03-12T01:53:57.603Z,99352.09
2024-03-12T01:56:27.631Z,99350.63
2024-03-12T01:58:55.113Z,99368.72
2024-03-12T02:01:22.600Z,99367.47
2024-03-12T02:03:53.096Z,99368.63
2024-03-12T02:06:20.906Z,99370.00
2024-03-12T02:08:50.190Z,99372.00
2024-03-12T02:11:17.726Z,99375.03
2024-03-12T02:13:44.967Z,99373.72
2024-03-12T02:16:12.075Z,99368.59
2024-03-12T02:18:39.467Z,99371.63
2024-03-12T02:21:06.991Z,99370.81
2024-03-12T02:23:47.361Z,99380.75
2024-03-12T02:26:14.581Z,99388.69
2024-03-12T02:28:41.623Z,99388.06
2024-03-12T02:31:08.762Z,99390.72
2024-03-12T02:33:36.734Z,99394.38
2024-03-12T02:36:06.272Z,99383.78
2024-03-12T02:38:33.324Z,99396.03
2024-03-12T02:41:00.396Z,99395.00
2024-03-12T02:43:28.903Z,99392.38
2024-03-12T02:45:56.360Z,99396.66
2024-03-12T02:48:24.753Z,99398.31
2024-03-12T02:50:52.558Z,99402.63
2024-03-12T02:53:19.564Z,99398.97
2024-03-12T02:55:47.704Z,99407.56
2024-03-12T02:58:14.906Z,99405.53
2024-03-12T03:00:42.915Z,99401.88
2024-03-12T03:03:09.926Z,99410.50
2024-03-12T03:05:37.004Z,99405.22
2024-03-12T03:08:04.367Z,99405.84
2024-03-12T03:10:31.377Z,99404.84
2024-03-12T03:12:58.490Z,99414.44
2024-03-12T03:15:25.593Z,99410.81
2024-03-12T03:17:53.848Z,99409.81
2024-03-12T03:20:21.240Z,99414.09
2024-03-12T03:22:48.321Z,99412.25
2024-03-12T03:25:16.020Z,99419.22
2024-03-12T03:27:43.589Z,99420.03
2024-03-12T03:30:13.912Z,99415.38
2024-03-12T03:32:41.060Z,99415.22
2024-03-12T03:35:08.467Z,99421.34
2024-03-12T03:37:38.222Z,99421.34
2024-03-12T03:40:11.033Z,99417.69
2024-03-12T03:42:43.124Z,99421.16
2024-03-12T03:45:10.433Z,99428.94
2024-03-12T03:47:37.562Z,99436.88
2024-03-12T03:50:09.399Z,99433.22
2024-03-12T03:52:38.227Z,99439.34
2024-03-12T03:55:07.835Z,99440.22
2024-03-12T03:57:35.234Z,99434.91
2024-03-12T04:00:13.247Z,99442.88
2024-03-12T04:02:40.920Z,99437.38
2024-03-12T04:05:09.010Z,99444.31
2024-03-12T04:07:36.077Z,99449.63
2024-03-12T04:10:03.759Z,99446.78
2024-03-12T04:12:30.940Z,99450.25
2024-03-12T04:14:59.165Z,99455.38
2024-03-12T04:17:26.320Z,99455.38
2024-03-12T04:19:53.382Z,99464.00
2024-03-12T04:22:20.425Z,99465.66
2024-03-12T04:24:48.062Z,99462.00
2024-03-12T04:27:16.147Z,99458.34
2024-03-12T04:29:43.880Z,99462.63
2024-03-12T04:32:11.093Z,99479.22
2024-03-12T04:34:38.371Z,99472.91
2024-03-12T04:37:05.800Z,99480.69
2024-03-12T04:39:33.361Z,99485.81
2024-03-12T04:42:03.361Z,99482.13
2024-03-12T04:44:30.919Z,99481.97
2024-03-12T04:46:58.425Z,99487.09
2024-03-12T04:49:26.522Z,99487.94
2024-03-12T04:51:54.375Z,99494.88
2024-03-12T04:54:21.511Z,99497.34
2024-03-12T04:56:51.724Z,99493.69
2024-03-12T04:59:19.105Z,99496.19
2024-03-12T05:01:48.792Z,99504.97
2024-03-12T05:04:22.421Z,99505.59
2024-03-12T05:06:50.912Z,99515.41
2024-03-12T05:09:19.201Z,99515.22
2024-03-12T05:11:46.931Z,99513.22
2024-03-12T05:14:14.385Z,99529.78
2024-03-12T05:16:41.429Z,99510.22
2024-03-12T05:19:11.882Z,99527.78
2024-03-12T05:21:39.454Z,99524.13
2024-03-12T05:24:07.126Z,99527.44
2024-03-12T05:26:37.377Z,99533.56
2024-03-12T05:29:04.477Z,99536.03
2024-03-12T05:31:33.630Z,99547.47
2024-03-12T05:34:03.139Z,99530.72
2024-03-12T05:36:42.946Z,99536.69
2024-03-12T05:39:27.458Z,99546.28
2024-03-12T05:42:12.835Z,99549.75
2024-03-12T05:44:58.650Z,99549.59
2024-03-12T05:47:45.148Z,99550.44
2024-03-12T05:50:18.296Z,99563.53
2024-03-12T05:52:49.331Z,99558.22
2024-03-12T05:55:16.707Z,99553.72
2024-03-12T05:57:46.864Z,99564.34
2024-03-12T06:00:14.285Z,99568.84
2024-03-12T06:02:43.025Z,99567.81
2024-03-12T06:05:13.836Z,99566.19
2024-03-12T06:07:50.879Z,99568.84
2024-03-12T06:10:18.126Z,99575.78
2024-03-12T06:12:45.671Z,99570.47
2024-03-12T06:15:12.683Z,99574.16
2024-03-12T06:17:39.782Z,99584.78
2024-03-12T06:20:11.155Z,99584.78
2024-03-12T06:22:38.945Z,99598.06
2024-03-12T06:25:06.894Z,99589.25
2024-03-12T06:27:37.551Z,99592.09
2024-03-12T06:30:12.152Z,99598.06
2024-03-12T06:32:39.168Z,99601.72
2024-03-12T06:35:06.609Z,99602.72
2024-03-12T06:37:34.162Z,99604.38
2024-03-12T06:40:05.108Z,99603.53
2024-03-12T06:42:32.140Z,99594.56
2024-03-12T06:45:01.628Z,99608.66
2024-03-12T06:47:30.042Z,99602.53
2024-03-12T06:49:59.663Z,99615.00
2024-03-12T06:52:27.836Z,99613.16
2024-03-12T06:54:55.010Z,99620.94
2024-03-12T06:57:23.378Z,99618.28
2024-03-12T06:59:50.843Z,99620.94
2024-03-12T07:02:18.883Z,99624.41
2024-03-12T07:04:48.445Z,99623.59
2024-03-12T07:07:20.616Z,99620.94
2024-03-12T07:09:48.417Z,99629.91
2024-03-12T07:12:17.332Z,99641.34
2024-03-12T07:14:46.669Z,99637.88
2024-03-12T07:17:15.409Z,99643.19
2024-03-12T07:19:43.992Z,99652.81
2024-03-12T07:22:12.080Z,99656.47
2024-03-12T07:24:40.712Z,99659.13
2024-03-12T07:27:08.666Z,99653.81
2024-03-12T07:29:36.039Z,99664.44
2024-03-12T07:32:04.963Z,99667.72
2024-03-12T07:34:32.850Z,99656.28
2024-03-12T07:37:01.613Z,99671.06
2024-03-12T07:39:35.710Z,99667.41
2024-03-12T07:42:15.376Z,99669.03
2024-03-12T07:44:42.935Z,99663.72
2024-03-12T07:47:11.684Z,99663.72
2024-03-12T07:49:38.818Z,99663.72
2024-03-12T07:52:10.518Z,99674.34
2024-03-12T07:54:37.871Z,99670.25
2024-03-12T07:57:10.998Z,99679.19
2024-03-12T07:59:38.327Z,99681.00
2024-03-12T08:02:12.663Z,99682.03
2024-03-12T08:04:46.569Z,99680.38
2024-03-12T08:07:14.722Z,99681.38
2024-03-12T08:09:45.172Z,99685.69
2024-03-12T08:12:16.337Z,99689.34
2024-03-12T08:14:45.709Z,99693.66
2024-03-12T08:17:13.652Z,99690.16
2024-03-12T08:19:44.427Z,99692.00
2024-03-12T08:22:12.022Z,99694.66
2024-03-12T08:24:40.391Z,99696.31
2024-03-12T08:27:08.309Z,99700.59
2024-03-12T08:29:35.445Z,99699.78
2024-03-12T08:32:02.627Z,99702.25
2024-03-12T08:34:29.774Z,99703.09
2024-03-12T08:36:57.592Z,99695.13
2024-03-12T08:39:29.237Z,99694.13
2024-03-12T08:41:56.922Z,99701.09
2024-03-12T08:44:24.749Z,99693.97
2024-03-12T08:46:51.771Z,99698.25
2024-03-12T08:49:18.885Z,99701.91
2024-03-12T08:51:46.271Z,99700.09
2024-03-12T08:54:15.163Z,99707.06
2024-03-12T08:56:44.161Z,99703.38
2024-03-12T08:59:16.775Z,99706.88
2024-03-12T09:01:44.960Z,99714.66
2024-03-12T09:04:12.450Z,99715.47
2024-03-12T09:06:42.039Z,99715.47
2024-03-12T09:09:09.257Z,99721.47
2024-03-12T09:11:37.975Z,99721.47
2024-03-12T09:14:06.023Z,99717.78
2024-03-12T09:16:33.148Z,99718.63
2024-03-12T09:19:01.433Z,99722.75
2024-03-12T09:21:29.110Z,99724.25
2024-03-12T09:24:01.575Z,99725.69
2024-03-12T09:26:30.280Z,99734.31
2024-03-12T09:28:58.731Z,99735.81
2024-03-12T09:31:26.149Z,99737.28
2024-03-12T09:33:53.917Z,99735.28
2024-03-12T09:36:22.265Z,99737.75
2024-03-12T09:38:51.907Z,99741.88
2024-03-12T09:41:21.882Z,99747.00
2024-03-12T09:43:49.695Z,99744.22
2024-03-12T09:46:18.143Z,99759.13
2024-03-12T09:48:47.796Z,99748.50
2024-03-12T09:51:15.123Z,99742.84
2024-03-12T09:53:43.621Z,99763.09
2024-03-12T09:56:16.390Z,99759.25
2024-03-12T09:58:44.344Z,99761.72
2024-03-12T10:01:13.732Z,99762.38
2024-03-12T10:03:44.855Z,99763.03
2024-03-12T10:06:12.012Z,99768.81
2024-03-12T10:08:45.152Z,99766.66
2024-03-12T10:11:22.361Z,99765.25
2024-03-12T10:13:59.929Z,99771.88
2024-03-12T10:16:28.829Z,99774.84
2024-03-12T10:19:19.610Z,99764.66
2024-03-12T10:21:47.159Z,99765.78
2024-03-12T10:24:18.276Z,99764.44
2024-03-12T10:26:46.126Z,99768.38
2024-03-12T10:29:20.825Z,99773.97
2024-03-12T10:31:49.243Z,99768.94
2024-03-12T10:34:21.340Z,99770.91
2024-03-12T10:36:50.684Z,99772.16
2024-03-12T10:39:29.635Z,99768.81
2024-03-12T10:42:00.454Z,99766.25
2024-03-12T10:44:29.970Z,99780.69
2024-03-12T10:46:59.870Z,99773.81
2024-03-12T10:49:28.920Z,99768.56
2024-03-12T10:51:57.752Z,99783.00
2024-03-12T10:54:27.710Z,99770.78
2024-03-12T10:56:55.821Z,99770.03
2024-03-12T10:59:24.701Z,99777.28
2024-03-12T11:01:52.035Z,99782.06
2024-03-12T11:04:19.163Z,99786.19
2024-03-12T11:06:49.877Z,99784.81
2024-03-12T11:09:23.053Z,99780.78
2024-03-12T11:11:53.461Z,99779.38
2024-03-12T11:14:21.678Z,99779.03
2024-03-12T11:16:48.957Z,99782.94
2024-03-12T11:19:22.003Z,99771.94
2024-03-12T11:21:50.933Z,99775.84
2024-03-12T11:24:30.618Z,99779.81
2024-03-12T11:27:02.061Z,99780.28
2024-03-12T11:30:09.923Z,99776.22
2024-03-12T11:32:50.130Z,99773.19
2024-03-12T11:35:22.499Z,99774.63
2024-03-12T11:40:40.629Z,99781.25
2024-03-12T11:43:12.437Z,99777.56
2024-03-12T11:45:46.488Z,99777.38
2024-03-12T11:48:20.174Z,99774.53
2024-03-12T11:51:00.290Z,99780.69
2024-03-12T11:53:36.621Z,99783.53
2024-03-12T11:56:05.701Z,99783.53
2024-03-12T11:58:42.102Z,99786.41
2024-03-12T12:01:11.613Z,99798.22
2024-03-12T12:03:38.975Z,99788.78
2024-03-12T12:06:07.443Z,99803.31
2024-03-12T12:08:42.470Z,99797.72
2024-03-12T12:11:17.019Z,99799.09
2024-03-12T12:13:47.539Z,99797.84
2024-03-12T12:16:18.872Z,99808.84
2024-03-12T12:18:46.654Z,99797.75
2024-03-12T12:21:19.775Z,99807.75
2024-03-12T12:23:50.453Z,99798.09
2024-03-12T12:26:23.061Z,99803.63
2024-03-12T12:28:53.974Z,99796.66
2024-03-12T12:31:22.852Z,99803.81
2024-03-12T12:33:56.799Z,99798.69
2024-03-12T12:36:31.326Z,99803.16
2024-03-12T12:39:03.790Z,99808.69
2024-03-12T12:41:43.392Z,99809.69
2024-03-12T12:44:16.177Z,99813.38
2024-03-12T12:46:44.100Z,99811.06
2024-03-12T12:49:14.352Z,99821.47
2024-03-12T12:51:42.665Z,99824.66
2024-03-12T12:54:10.709Z,99830.72
2024-03-12T12:56:47.366Z,99826.94
2024-03-12T12:59:17.702Z,99826.03
2024-03-12T13:01:48.341Z,99823.28
2024-03-12T13:04:24.588Z,99819.50
2024-03-12T13:06:54.891Z,99815.28
2024-03-12T13:09:30.260Z,99824.81
2024-03-12T13:11:58.557Z,99822.66
2024-03-12T13:14:27.079Z,99828.38
2024-03-12T13:16:55.042Z,99824.41
2024-03-12T13:19:23.927Z,99826.38
2024-03-12T13:21:51.734Z,99824.56
2024-03-12T13:24:22.015Z,99825.56
2024-03-12T13:26:49.647Z,99819.41
2024-03-12T13:29:17.064Z,99821.06
2024-03-12T13:31:44.764Z,99821.06
2024-03-12T13:34:11.835Z,99820.06
2024-03-12T13:36:38.933Z,99827.88
2024-03-12T13:39:07.416Z,99823.03
2024-03-12T13:41:35.742Z,99824.50
2024-03-12T13:44:02.858Z,99822.31
2024-03-12T13:46:30.021Z,99824.44
2024-03-12T13:49:16.588Z,99824.72
2024-03-12T13:51:44.656Z,99824.19
2024-03-12T13:54:12.060Z,99830.81
2024-03-12T13:56:39.322Z,99835.75
2024-03-12T13:59:06.482Z,99835.22
2024-03-12T14:01:34.275Z,99828.50
2024-03-12T14:04:01.889Z,99836.34
2024-03-12T14:06:31.126Z,99827.78
2024-03-12T14:08:58.404Z,99835.59
2024-03-12T14:11:26.739Z,99829.06
2024-03-12T14:13:56.199Z,99829.91
2024-03-12T14:16:24.008Z,99845.69
2024-03-12T14:18:53.202Z,99846.50
2024-03-12T14:21:20.462Z,99844.66
2024-03-12T14:23:48.684Z,99836.88
2024-03-12T14:26:18.997Z,99847.53
2024-03-12T14:28:47.042Z,99844.84
2024-03-12T14:31:17.494Z,99850.19
2024-03-12T14:33:44.820Z,99851.19
2024-03-12T14:36:11.890Z,99849.56
2024-03-12T14:38:39.183Z,99847.91
2024-03-12T14:41:07.465Z,99849.56
2024-03-12T14:43:35.539Z,99849.56
2024-03-12T14:46:05.922Z,99854.06
2024-03-12T14:48:33.352Z,99853.22
2024-03-12T14:51:01.059Z,99852.56
2024-03-12T14:53:28.589Z,99860.56
2024-03-12T14:55:55.867Z,99859.72
2024-03-12T14:58:23.368Z,99851.94
2024-03-12T15:00:50.671Z,99857.25
2024-03-12T15:03:19.887Z,99860.94
2024-03-12T15:05:54.813Z,99853.31
2024-03-12T15:08:21.985Z,99855.13
2024-03-12T15:10:49.126Z,99857.97
2024-03-12T15:13:16.359Z,99857.34
2024-03-12T15:15:43.460Z,99859.19
2024-03-12T15:18:13.893Z,99857.69
2024-03-12T15:20:42.743Z,99852.34
2024-03-12T15:23:09.805Z,99856.22
2024-03-12T15:25:36.886Z,99859.06
2024-03-12T15:28:04.319Z,99856.59
2024-03-12T15:30:31.942Z,99850.44
2024-03-12T15:32:59.198Z,99847.94
2024-03-12T15:35:26.461Z,99846.28
2024-03-12T15:37:55.121Z,99846.28
2024-03-12T15:40:23.716Z,99846.28
2024-03-12T15:42:51.060Z,99844.47
2024-03-12T15:45:18.226Z,99846.09
2024-03-12T15:47:45.694Z,99841.63
2024-03-12T15:50:13.610Z,99845.94
2024-03-12T15:52:41.566Z,99835.31
2024-03-12T15:55:09.611Z,99836.97
2024-03-12T15:57:39.892Z,99833.28
2024-03-12T16:00:09.463Z,99835.75
2024-03-12T16:02:39.845Z,99833.72
2024-03-12T16:05:07.445Z,99836.22
2024-03-12T16:07:37.517Z,99842.38
2024-03-12T16:10:06.178Z,99837.50
2024-03-12T16:12:33.712Z,99836.69
2024-03-12T16:15:01.039Z,99840.00
2024-03-12T16:17:31.256Z,99837.34
2024-03-12T16:19:58.531Z,99840.84
2024-03-12T16:22:25.659Z,99839.00
2024-03-12T16:24:52.839Z,99831.84
2024-03-12T16:27:19.930Z,99834.50
2024-03-12T16:29:48.445Z,99835.13
2024-03-12T16:32:15.663Z,99841.28
2024-03-12T16:34:42.984Z,99835.31
2024-03-12T16:37:10.500Z,99838.81
2024-03-12T16:39:39.844Z,99835.31
2024-03-12T16:42:07.337Z,99837.16
2024-03-12T16:44:34.322Z,99836.34
2024-03-12T16:47:05.736Z,99840.00
2024-03-12T16:49:33.916Z,99834.69
2024-03-12T16:52:02.253Z,99838.31
2024-03-12T16:54:31.954Z,99834.84
2024-03-12T16:57:03.564Z,99837.69
2024-03-12T16:59:31.808Z,99836.88
2024-03-12T17:01:59.453Z,99833.56
2024-03-12T17:04:27.946Z,99841.72
2024-03-12T17:06:59.445Z,99838.41
2024-03-12T17:09:27.067Z,99840.44
2024-03-12T17:11:57.478Z,99846.78
2024-03-12T17:14:30.734Z,99839.97
2024-03-12T17:17:07.826Z,99850.78
2024-03-12T17:19:38.236Z,99842.19
2024-03-12T17:22:06.908Z,99843.19
2024-03-12T17:24:35.638Z,99853.16
2024-03-12T17:27:11.208Z,99846.19
2024-03-12T17:29:38.633Z,99853.53
2024-03-12T17:32:06.626Z,99850.25
2024-03-12T17:34:34.209Z,99857.38
2024-03-12T17:37:04.966Z,99850.59
2024-03-12T17:39:35.296Z,99850.59
2024-03-12T17:42:02.958Z,99852.41
2024-03-12T17:44:30.469Z,99851.78
2024-03-12T17:47:00.876Z,99850.13
2024-03-12T17:49:40.972Z,99852.94
2024-03-12T17:52:11.795Z,99856.63
2024-03-12T17:54:39.739Z,99850.47
2024-03-12T17:57:12.401Z,99853.31
2024-03-12T17:59:40.812Z,99860.47
2024-03-12T18:02:13.508Z,99860.66
2024-03-12T18:04:42.207Z,99867.78
2024-03-12T18:07:26.773Z,99867.94
2024-03-12T18:09:58.207Z,99861.97
2024-03-12T18:12:25.577Z,99864.66
2024-03-12T18:14:52.625Z,99872.81
2024-03-12T18:17:21.518Z,99877.31
2024-03-12T18:19:48.686Z,99866.81
2024-03-12T18:22:17.585Z,99872.31
2024-03-12T18:24:47.353Z,99873.53
2024-03-12T18:27:14.457Z,99872.03
2024-03-12T18:29:44.164Z,99872.41
2024-03-12T18:32:15.483Z,99879.72
2024-03-12T18:34:43.441Z,99880.06
2024-03-12T18:37:10.939Z,99877.09
2024-03-12T18:39:38.189Z,99879.31
2024-03-12T18:42:06.970Z,99882.50
2024-03-12T18:44:34.231Z,99877.88
2024-03-12T18:47:02.943Z,99877.75
2024-03-12T18:49:30.379Z,99879.28
2024-03-12T18:51:57.900Z,99883.63
2024-03-12T18:54:25.368Z,99887.00
2024-03-12T18:56:52.980Z,99887.69
2024-03-12T18:59:20.412Z,99887.38
2024-03-12T19:01:52.170Z,99886.25
2024-03-12T19:04:31.042Z,99891.25
2024-03-12T19:06:59.815Z,99889.13
2024-03-12T19:09:30.355Z,99889.44
2024-03-12T19:11:57.889Z,99898.75
2024-03-12T19:14:25.335Z,99904.41
2024-03-12T19:16:54.006Z,99899.47
2024-03-12T19:19:25.060Z,99896.13
2024-03-12T19:21:52.778Z,99907.09
2024-03-12T19:24:19.959Z,99906.28
2024-03-12T19:26:47.013Z,99909.13
2024-03-12T19:29:14.046Z,99897.00
2024-03-12T19:31:41.501Z,99902.47
2024-03-12T19:34:16.446Z,99894.69
2024-03-12T19:36:45.233Z,99898.50
2024-03-12T19:39:13.408Z,99896.00
2024-03-12T19:41:45.335Z,99892.53
2024-03-12T19:44:13.260Z,99884.91
2024-03-12T19:46:43.730Z,99892.03
2024-03-12T19:49:11.208Z,99891.38
2024-03-12T19:51:38.615Z,99894.03
2024-03-12T19:54:09.476Z,99889.91
2024-03-12T19:56:37.285Z,99889.09
2024-03-12T19:59:05.901Z,99892.88
2024-03-12T20:01:33.283Z,99893.88
2024-03-12T20:04:00.723Z,99896.53
2024-03-12T20:06:27.908Z,99890.59
2024-03-12T20:08:56.213Z,99901.19
2024-03-12T20:11:23.532Z,99890.06
2024-03-12T20:13:51.027Z,99890.91
2024-03-12T20:16:18.147Z,99894.56
2024-03-12T20:18:45.939Z,99892.09
2024-03-12T20:21:13.125Z,99891.25
2024-03-12T20:23:42.424Z,99892.25
2024-03-12T20:26:10.732Z,99886.28
2024-03-12T20:28:37.741Z,99886.28
2024-03-12T20:31:07.353Z,99896.06
2024-03-12T20:33:34.362Z,99888.28
2024-03-12T20:36:05.753Z,99890.94
2024-03-12T20:38:32.933Z,99890.09
2024-03-12T20:41:00.184Z,99886.63
2024-03-12T20:43:28.702Z,99891.09
2024-03-12T20:45:56.019Z,99884.97
2024-03-12T20:48:23.488Z,99884.97
2024-03-12T20:50:50.705Z,99882.31
2024-03-12T20:53:18.738Z,99874.53
2024-03-12T20:55:45.894Z,99872.69
2024-03-12T20:58:14.704Z,99879.00
2024-03-12T21:00:42.456Z,99876.34
2024-03-12T21:03:12.109Z,99874.53
2024-03-12T21:05:40.120Z,99860.44
2024-03-12T21:08:08.117Z,99853.44
2024-03-12T21:10:35.494Z,99866.72
2024-03-12T21:13:02.875Z,99861.41
2024-03-12T21:15:30.738Z,99856.91
2024-03-12T21:17:57.826Z,99852.63
2024-03-12T21:20:33.620Z,99862.41
2024-03-12T21:23:04.590Z,99854.44
2024-03-12T21:25:33.227Z,99859.75
2024-03-12T21:28:00.489Z,99845.84
2024-03-12T21:30:28.974Z,99857.44
2024-03-12T21:32:59.386Z,99857.44
2024-03-12T21:35:26.552Z,99858.44
2024-03-12T21:37:53.701Z,99852.47
2024-03-12T21:40:21.099Z,99856.13
2024-03-12T21:42:48.300Z,99850.97
2024-03-12T21:45:18.788Z,99852.81
2024-03-12T21:47:47.841Z,99845.03
2024-03-12T21:50:16.843Z,99844.19
2024-03-12T21:52:44.374Z,99835.56
2024-03-12T21:55:12.757Z,99833.91
2024-03-12T21:57:41.603Z,99826.94
2024-03-12T22:00:18.691Z,99828.78
2024-03-12T22:02:45.983Z,99824.47
2024-03-12T22:05:15.743Z,99827.13
2024-03-12T22:07:45.131Z,99820.31
2024-03-12T22:10:15.478Z,99818.66
2024-03-12T22:12:42.940Z,99810.88
2024-03-12T22:15:12.928Z,99805.56
2024-03-12T22:17:43.488Z,99808.41
2024-03-12T22:20:15.692Z,99810.22
2024-03-12T22:22:45.961Z,99812.88
2024-03-12T22:25:15.596Z,99812.06
2024-03-12T22:27:44.975Z,99813.72
2024-03-12T22:30:12.748Z,99808.41
2024-03-12T22:32:43.393Z,99811.06
2024-03-12T22:35:11.017Z,99805.75
2024-03-12T22:37:38.761Z,99807.41
2024-03-12T22:40:06.809Z,99800.28
2024-03-12T22:42:34.443Z,99797.78
2024-03-12T22:45:05.154Z,99792.50
2024-03-12T22:47:33.507Z,99787.19
2024-03-12T22:50:00.811Z,99786.34
2024-03-12T22:52:29.831Z,99784.53
2024-03-12T22:54:57.158Z,99787.19
2024-03-12T22:57:24.677Z,99779.41
2024-03-12T22:59:53.026Z,99779.53
2024-03-12T23:02:20.535Z,99776.06
2024-03-12T23:04:51.976Z,99775.25
2024-03-12T23:07:19.724Z,99772.59
2024-03-12T23:09:48.432Z,99765.63
2024-03-12T23:12:16.255Z,99764.81
2024-03-12T23:14:43.734Z,99757.03
2024-03-12T23:17:11.181Z,99754.38
2024-03-12T23:19:41.441Z,99742.13
2024-03-12T23:22:10.313Z,99751.88
2024-03-12T23:24:38.935Z,99741.44
2024-03-12T23:27:06.217Z,99741.63
2024-03-12T23:29:33.355Z,99748.75
2024-03-12T23:32:01.173Z,99742.78
2024-03-12T23:34:28.543Z,99742.78
2024-03-12T23:36:55.730Z,99733.16
2024-03-12T23:39:24.772Z,99728.03
2024-03-12T23:41:53.463Z,99730.50
2024-03-12T23:44:20.601Z,99732.50
2024-03-12T23:46:47.780Z,99737.81
2024-03-12T23:49:14.961Z,99729.84
2024-03-12T23:51:42.211Z,99719.41
2024-03-12T23:54:09.244Z,99726.56
2024-03-12T23:56:39.316Z,99723.06
2024-03-12T23:59:06.803Z,99720.59
